createdAt,value
2023-01-04T00:02:06.865Z,5.50
2023-01-04T00:04:34.906Z,5.40
2023-01-04T00:07:02.984Z,5.40
2023-01-04T00:09:30.945Z,5.30
2023-01-04T00:11:58.961Z,5.30
2023-01-04T00:14:26.939Z,5.40
2023-01-04T00:16:55.032Z,5.40
2023-01-04T00:19:24.546Z,5.30
2023-01-04T00:21:53.172Z,5.30
2023-01-04T00:24:21.126Z,5.30
2023-01-04T00:26:49.065Z,5.20
2023-01-04T00:29:17.000Z,5.30
2023-01-04T00:31:45.521Z,5.30
2023-01-04T00:34:15.916Z,5.30
2023-01-04T00:36:45.753Z,5.30
2023-01-04T00:39:15.775Z,5.30
2023-01-04T00:42:02.945Z,5.30
2023-01-04T00:44:31.775Z,5.40
2023-01-04T00:47:00.079Z,5.40
2023-01-04T00:49:29.011Z,5.50
2023-01-04T00:51:59.213Z,5.50
2023-01-04T00:54:27.335Z,5.50
2023-01-04T00:56:55.434Z,5.50
2023-01-04T00:59:23.608Z,5.50
2023-01-04T01:01:52.480Z,5.60
2023-01-04T01:04:24.163Z,5.50
2023-01-04T01:06:53.094Z,5.60
2023-01-04T01:09:23.597Z,5.50
2023-01-04T01:11:52.481Z,5.50
2023-01-04T01:14:23.100Z,5.50
2023-01-04T01:16:57.654Z,5.60
2023-01-04T01:19:27.563Z,5.50
2023-01-04T01:21:56.974Z,5.50
2023-01-04T01:24:27.650Z,5.60
2023-01-04T01:26:59.361Z,5.50
2023-01-04T01:29:27.471Z,5.50
2023-01-04T01:31:55.511Z,5.50
2023-01-04T01:34:23.649Z,5.50
2023-01-04T01:36:51.587Z,5.50
2023-01-04T01:39:19.604Z,5.50
2023-01-04T01:41:49.424Z,5.50
2023-01-04T01:44:55.164Z,5.50
2023-01-04T01:47:24.985Z,5.50
2023-01-04T01:49:55.038Z,5.50
2023-01-04T01:52:25.599Z,5.50
2023-01-04T01:54:58.165Z,5.50
2023-01-04T01:57:29.908Z,5.50
2023-01-04T02:00:02.017Z,5.60
2023-01-04T02:02:30.251Z,5.60
2023-01-04T02:05:00.268Z,5.60
2023-01-04T02:07:30.124Z,5.70
2023-01-04T02:09:59.329Z,5.60
2023-01-04T02:12:28.620Z,5.70
2023-01-04T02:14:56.554Z,5.70
2023-01-04T02:17:34.613Z,5.80
2023-01-04T02:20:33.766Z,5.80
2023-01-04T02:23:53.530Z,5.90
2023-01-04T02:26:49.648Z,6.00
2023-01-04T02:29:59.630Z,6.00
2023-01-04T02:32:41.566Z,5.90
2023-01-04T02:35:18.604Z,5.90
2023-01-04T02:37:51.941Z,5.90
2023-01-04T02:40:24.477Z,5.90
2023-01-04T02:43:16.595Z,6.00
2023-01-04T02:45:51.925Z,6.00
2023-01-04T02:48:38.563Z,6.00
2023-01-04T02:51:09.210Z,6.00
2023-01-04T02:53:40.748Z,6.00
2023-01-04T02:56:16.783Z,6.00
2023-01-04T02:59:01.779Z,6.10
2023-01-04T03:01:56.999Z,6.00
2023-01-04T03:04:56.257Z,6.10
2023-01-04T03:07:28.898Z,6.10
2023-01-04T03:10:03.678Z,6.10
2023-01-04T03:12:39.763Z,6.10
2023-01-04T03:15:16.174Z,6.20
2023-01-04T03:17:50.457Z,6.20
2023-01-04T03:20:22.052Z,6.20
2023-01-04T03:23:13.106Z,6.20
2023-01-04T03:26:01.293Z,6.20
2023-01-04T03:28:51.513Z,6.30
2023-01-04T03:31:42.720Z,6.20
2023-01-04T03:34:29.205Z,6.20
2023-01-04T03:37:08.561Z,6.20
2023-01-04T03:40:07.139Z,6.20
2023-01-04T03:43:02.857Z,6.20
2023-01-04T03:45:52.066Z,6.20
2023-01-04T03:48:29.360Z,6.20
2023-01-04T03:51:09.704Z,6.20
2023-01-04T03:53:44.367Z,6.20
2023-01-04T03:56:13.561Z,6.30
2023-01-04T03:58:41.813Z,6.30
2023-01-04T04:01:09.828Z,6.30
2023-01-04T04:03:55.476Z,6.40
2023-01-04T04:06:40.983Z,6.40
2023-01-04T04:09:10.598Z,6.40
2023-01-04T04:11:40.759Z,6.50
2023-01-04T04:14:08.743Z,6.40
2023-01-04T04:16:36.739Z,6.40
2023-01-04T04:19:08.547Z,6.40
2023-01-04T04:21:37.206Z,6.30
2023-01-04T04:24:05.520Z,6.30
2023-01-04T04:26:34.844Z,6.30
2023-01-04T04:29:02.752Z,6.20
2023-01-04T04:31:30.823Z,6.20
2023-01-04T04:33:58.804Z,6.20
2023-01-04T04:36:26.875Z,6.10
2023-01-04T04:38:54.741Z,6.10
2023-01-04T04:41:41.232Z,6.10
2023-01-04T04:44:13.049Z,6.00
2023-01-04T04:46:41.455Z,6.00
2023-01-04T04:49:09.976Z,6.00
2023-01-04T04:51:38.400Z,5.90
2023-01-04T04:54:07.225Z,5.90
2023-01-04T04:56:36.694Z,5.90
2023-01-04T04:59:04.640Z,5.80
2023-01-04T05:01:34.124Z,5.80
2023-01-04T05:04:02.213Z,5.80
2023-01-04T05:06:30.215Z,5.80
2023-01-04T05:08:58.441Z,5.80
2023-01-04T05:11:40.264Z,5.70
2023-01-04T05:14:08.243Z,5.80
2023-01-04T05:16:37.807Z,5.80
2023-01-04T05:19:07.207Z,5.80
2023-01-04T05:21:35.251Z,5.80
2023-01-04T05:24:03.403Z,5.80
2023-01-04T05:26:31.420Z,5.80
2023-01-04T05:28:59.437Z,5.80
2023-01-04T05:31:26.958Z,5.90
2023-01-04T05:33:56.528Z,5.90
2023-01-04T05:36:24.639Z,5.90
2023-01-04T05:38:55.254Z,6.00
2023-01-04T05:41:42.998Z,5.90
2023-01-04T05:44:11.097Z,5.90
2023-01-04T05:46:39.154Z,6.00
2023-01-04T05:49:08.529Z,6.00
2023-01-04T05:51:36.466Z,6.10
2023-01-04T05:54:04.562Z,6.10
2023-01-04T05:56:32.642Z,6.10
2023-01-04T05:59:00.756Z,6.20
2023-01-04T06:01:28.959Z,6.20
2023-01-04T06:03:58.081Z,6.30
2023-01-04T06:06:27.462Z,6.30
2023-01-04T06:08:58.392Z,6.30
2023-01-04T06:11:27.885Z,6.40
2023-01-04T06:13:56.012Z,6.40
2023-01-04T06:16:24.008Z,6.40
2023-01-04T06:18:51.957Z,6.50
2023-01-04T06:21:19.864Z,6.50
2023-01-04T06:23:49.387Z,6.50
2023-01-04T06:26:17.348Z,6.60
2023-01-04T06:28:45.456Z,6.60
2023-01-04T06:31:13.641Z,6.70
2023-01-04T06:33:41.592Z,6.70
2023-01-04T06:36:19.425Z,6.70
2023-01-04T06:38:52.063Z,6.80
2023-01-04T06:41:20.855Z,6.90
2023-01-04T06:43:48.778Z,6.90
2023-01-04T06:46:16.857Z,6.90
2023-01-04T06:48:44.926Z,6.90
2023-01-04T06:51:13.072Z,6.90
2023-01-04T06:53:41.455Z,6.90
2023-01-04T06:56:13.818Z,7.00
2023-01-04T06:58:42.116Z,7.00
2023-01-04T07:01:12.674Z,7.00
2023-01-04T07:03:40.649Z,7.00
2023-01-04T07:06:10.810Z,7.10
2023-01-04T07:08:41.698Z,7.10
2023-01-04T07:11:11.094Z,7.20
2023-01-04T07:13:38.980Z,7.20
2023-01-04T07:16:07.591Z,7.30
2023-01-04T07:18:35.555Z,7.30
2023-01-04T07:21:03.513Z,7.40
2023-01-04T07:23:31.376Z,7.50
2023-01-04T07:26:02.774Z,7.50
2023-01-04T07:28:49.493Z,7.60
2023-01-04T07:31:17.573Z,7.60
2023-01-04T07:33:45.500Z,7.60
2023-01-04T07:36:13.352Z,7.60
2023-01-04T07:38:41.240Z,7.60
2023-01-04T07:41:12.008Z,7.60
2023-01-04T07:43:41.277Z,7.70
2023-01-04T07:46:09.308Z,7.70
2023-01-04T07:48:37.241Z,7.70
2023-01-04T07:51:05.252Z,7.70
2023-01-04T07:53:34.094Z,7.70
2023-01-04T07:56:02.077Z,7.70
2023-01-04T07:58:34.150Z,7.70
2023-01-04T08:01:09.324Z,7.70
2023-01-04T08:03:37.415Z,7.70
2023-01-04T08:06:10.982Z,7.70
2023-01-04T08:08:39.195Z,7.70
2023-01-04T08:11:09.358Z,7.70
2023-01-04T08:13:37.361Z,7.70
2023-01-04T08:16:06.044Z,7.70
2023-01-04T08:18:35.843Z,7.80
2023-01-04T08:21:06.927Z,7.80
2023-01-04T08:23:37.600Z,7.80
2023-01-04T08:26:06.851Z,7.80
2023-01-04T08:28:37.871Z,7.80
2023-01-04T08:31:08.375Z,7.90
2023-01-04T08:33:40.606Z,7.90
2023-01-04T08:36:12.509Z,7.90
2023-01-04T08:38:59.258Z,7.90
2023-01-04T08:41:56.735Z,7.90
2023-01-04T08:44:16.186Z,7.90
2023-01-04T08:46:46.985Z,7.90
2023-01-04T08:49:16.467Z,7.90
2023-01-04T08:51:44.814Z,7.80
2023-01-04T08:54:14.905Z,7.80
2023-01-04T08:56:43.394Z,7.90
2023-01-04T08:59:12.774Z,7.90
2023-01-04T09:01:41.768Z,7.90
2023-01-04T09:04:11.319Z,7.90
2023-01-04T09:06:41.126Z,7.90
2023-01-04T09:09:09.125Z,7.90
2023-01-04T09:11:39.375Z,7.90
2023-01-04T09:14:09.369Z,8.00
2023-01-04T09:16:42.604Z,8.00
2023-01-04T09:19:10.495Z,8.10
2023-01-04T09:21:42.418Z,8.10
2023-01-04T09:24:13.837Z,8.10
2023-01-04T09:26:41.752Z,8.10
2023-01-04T09:29:12.089Z,8.10
2023-01-04T09:31:40.567Z,8.10
2023-01-04T09:34:18.175Z,8.10
2023-01-04T09:36:48.844Z,8.10
2023-01-04T09:39:24.888Z,8.10
2023-01-04T09:41:57.796Z,8.20
2023-01-04T09:45:12.322Z,8.30
2023-01-04T09:47:32.801Z,8.30
2023-01-04T09:50:06.483Z,8.30
2023-01-04T09:52:47.581Z,8.30
2023-01-04T09:55:38.324Z,8.40
2023-01-04T09:58:22.800Z,8.40
2023-01-04T10:00:55.220Z,8.50
2023-01-04T10:03:24.995Z,8.40
2023-01-04T10:05:55.829Z,8.40
2023-01-04T10:08:25.913Z,8.40
2023-01-04T10:11:08.703Z,8.40
2023-01-04T10:13:50.084Z,8.40
2023-01-04T10:16:52.449Z,8.40
2023-01-04T10:22:26.720Z,8.40
2023-01-04T10:25:05.280Z,8.40
2023-01-04T10:27:42.939Z,8.40
2023-01-04T10:30:27.214Z,8.40
2023-01-04T10:33:09.032Z,8.50
2023-01-04T10:35:40.796Z,8.50
2023-01-04T10:38:19.230Z,8.50
2023-01-04T10:40:50.467Z,8.50
2023-01-04T10:44:09.995Z,8.60
2023-01-04T10:46:38.964Z,8.50
2023-01-04T10:49:13.296Z,8.60
2023-01-04T10:51:45.408Z,8.60
2023-01-04T10:54:25.480Z,8.70
2023-01-04T10:57:05.145Z,8.70
2023-01-04T10:59:40.778Z,8.80
2023-01-04T11:02:19.394Z,8.80
2023-01-04T11:04:53.553Z,8.80
2023-01-04T11:07:25.824Z,8.80
2023-01-04T11:09:59.415Z,8.80
2023-01-04T11:12:29.033Z,8.80
2023-01-04T11:14:57.432Z,8.90
2023-01-04T11:17:28.602Z,9.00
2023-01-04T11:19:58.039Z,8.90
2023-01-04T11:22:31.071Z,9.00
2023-01-04T11:28:01.437Z,9.00
2023-01-04T11:30:37.106Z,9.00
2023-01-04T11:33:12.096Z,9.00
2023-01-04T11:35:43.818Z,9.00
2023-01-04T11:38:16.425Z,9.00
2023-01-04T11:40:55.501Z,9.00
2023-01-04T11:43:28.022Z,9.00
2023-01-04T11:46:03.319Z,9.10
2023-01-04T11:48:39.820Z,9.10
2023-01-04T11:51:19.782Z,9.10
2023-01-04T11:53:57.204Z,9.20
2023-01-04T11:56:26.369Z,9.30
2023-01-04T11:59:17.784Z,9.40
2023-01-04T12:01:53.261Z,9.50
2023-01-04T12:04:23.876Z,9.50
2023-01-04T12:06:54.314Z,9.50
2023-01-04T12:09:28.501Z,9.60
2023-01-04T12:12:02.629Z,9.60
2023-01-04T12:14:38.292Z,9.60
2023-01-04T12:17:12.955Z,9.60
2023-01-04T12:19:43.388Z,9.60
2023-01-04T12:22:24.165Z,9.60
2023-01-04T12:25:00.035Z,9.60
2023-01-04T12:27:31.472Z,9.70
2023-01-04T12:30:02.135Z,9.70
2023-01-04T12:32:46.978Z,9.70
2023-01-04T12:36:03.062Z,9.80
2023-01-04T12:39:17.095Z,9.80
2023-01-04T12:42:21.917Z,9.80
2023-01-04T12:45:23.273Z,9.80
2023-01-04T12:48:13.409Z,9.80
2023-01-04T12:51:37.404Z,9.90
2023-01-04T12:54:24.709Z,9.90
2023-01-04T12:57:25.670Z,9.90
2023-01-04T13:00:02.403Z,9.90
2023-01-04T13:02:32.610Z,9.90
2023-01-04T13:05:53.211Z,10.00
2023-01-04T13:07:54.251Z,10.00
2023-01-04T13:10:32.097Z,10.00
2023-01-04T13:13:16.167Z,10.20
2023-01-04T13:16:02.789Z,10.30
2023-01-04T13:18:43.007Z,10.40
2023-01-04T13:21:16.940Z,10.40
2023-01-04T13:23:51.361Z,10.50
2023-01-04T13:26:38.073Z,10.50
2023-01-04T13:29:17.691Z,10.60
2023-01-04T13:31:58.540Z,10.60
2023-01-04T13:34:33.843Z,10.60
2023-01-04T13:37:08.742Z,10.50
2023-01-04T13:39:41.262Z,10.40
2023-01-04T13:42:15.108Z,10.30
2023-01-04T13:45:19.102Z,10.20
2023-01-04T13:47:57.215Z,10.10
2023-01-04T13:50:33.825Z,10.10
2023-01-04T13:53:07.436Z,10.00
2023-01-04T13:55:37.798Z,10.00
2023-01-04T13:58:07.849Z,10.00
2023-01-04T14:00:42.738Z,10.00
2023-01-04T14:03:35.472Z,10.00
2023-01-04T14:06:23.082Z,10.00
2023-01-04T14:08:59.178Z,10.00
2023-01-04T14:11:49.733Z,10.10
2023-01-04T14:14:32.754Z,10.10
2023-01-04T14:17:28.693Z,10.10
2023-01-04T14:19:59.091Z,10.10
2023-01-04T14:22:42.396Z,10.10
2023-01-04T14:25:56.512Z,10.20
2023-01-04T14:28:33.613Z,10.30
2023-01-04T14:31:33.222Z,10.30
2023-01-04T14:34:14.436Z,10.30
2023-01-04T14:36:44.700Z,10.30
2023-01-04T14:39:29.325Z,10.30
2023-01-04T14:41:59.863Z,10.40
2023-01-04T14:44:31.169Z,10.40
2023-01-04T14:47:01.141Z,10.40
2023-01-04T14:49:31.678Z,10.40
2023-01-04T14:52:02.446Z,10.50
2023-01-04T14:54:31.693Z,10.50
2023-01-04T14:57:00.509Z,10.50
2023-01-04T14:59:31.947Z,10.50
2023-01-04T15:02:04.367Z,10.60
2023-01-04T15:04:32.539Z,10.60
2023-01-04T15:07:02.321Z,10.60
2023-01-04T15:09:31.082Z,10.60
2023-01-04T15:11:59.488Z,10.60
2023-01-04T15:14:27.652Z,10.70
2023-01-04T15:16:55.670Z,10.70
2023-01-04T15:19:23.668Z,10.70
2023-01-04T15:21:52.047Z,10.70
2023-01-04T15:24:21.504Z,10.70
2023-01-04T15:26:49.904Z,10.70
2023-01-04T15:29:20.865Z,10.70
2023-01-04T15:31:48.887Z,10.70
2023-01-04T15:34:18.139Z,10.70
2023-01-04T15:36:46.045Z,10.70
2023-01-04T15:39:14.987Z,10.70
2023-01-04T15:42:04.503Z,10.60
2023-01-04T15:44:33.925Z,10.60
2023-01-04T15:47:01.955Z,10.60
2023-01-04T15:49:31.345Z,10.50
2023-01-04T15:52:02.399Z,10.50
2023-01-04T15:54:30.792Z,10.40
2023-01-04T15:57:00.201Z,10.40
2023-01-04T15:59:30.137Z,10.40
2023-01-04T16:01:58.157Z,10.40
2023-01-04T16:04:31.897Z,10.40
2023-01-04T16:07:02.429Z,10.40
2023-01-04T16:09:30.443Z,10.30
2023-01-04T16:12:17.127Z,10.40
2023-01-04T16:14:45.058Z,10.40
2023-01-04T16:17:15.729Z,10.30
2023-01-04T16:19:50.302Z,10.40
2023-01-04T16:22:18.257Z,10.40
2023-01-04T16:27:39.207Z,10.40
2023-01-04T16:30:09.734Z,10.30
2023-01-04T16:32:38.257Z,10.40
2023-01-04T16:35:06.707Z,10.30
2023-01-04T16:37:34.645Z,10.30
2023-01-04T16:40:07.252Z,10.40
2023-01-04T16:42:38.177Z,10.30
2023-01-04T16:45:07.614Z,10.40
2023-01-04T16:47:41.148Z,10.30
2023-01-04T16:50:10.799Z,10.30
2023-01-04T16:52:41.261Z,10.30
2023-01-04T16:55:11.716Z,10.40
2023-01-04T16:57:41.288Z,10.40
2023-01-04T17:00:10.673Z,10.40
2023-01-04T17:02:40.152Z,10.30
2023-01-04T17:05:10.013Z,10.30
2023-01-04T17:07:38.185Z,10.30
2023-01-04T17:10:07.457Z,10.40
2023-01-04T17:12:47.225Z,10.30
2023-01-04T17:18:06.739Z,10.30
2023-01-04T17:20:35.075Z,10.40
2023-01-04T17:23:05.515Z,10.30
2023-01-04T17:25:33.630Z,10.30
2023-01-04T17:28:01.715Z,10.30
2023-01-04T17:30:31.687Z,10.20
2023-01-04T17:32:59.723Z,10.20
2023-01-04T17:35:27.695Z,10.20
2023-01-04T17:37:55.731Z,10.10
2023-01-04T17:40:24.167Z,10.10
2023-01-04T17:42:54.383Z,10.10
2023-01-04T17:45:22.570Z,10.10
2023-01-04T17:47:52.455Z,10.10
2023-01-04T17:50:21.336Z,10.10
2023-01-04T17:52:53.834Z,10.10
2023-01-04T17:55:21.749Z,10.10
2023-01-04T17:57:50.284Z,10.00
2023-01-04T18:00:18.798Z,10.00
2023-01-04T18:02:46.797Z,10.00
2023-01-04T18:05:16.348Z,10.10
2023-01-04T18:07:44.304Z,10.00
2023-01-04T18:10:21.510Z,10.00
2023-01-04T18:13:01.211Z,10.00
2023-01-04T18:15:29.239Z,10.10
2023-01-04T18:17:57.698Z,10.00
2023-01-04T18:20:29.164Z,10.10
2023-01-04T18:22:57.208Z,10.10
2023-01-04T18:25:27.344Z,10.10
2023-01-04T18:27:55.247Z,10.20
2023-01-04T18:30:23.182Z,10.20
2023-01-04T18:32:51.507Z,10.20
2023-01-04T18:35:19.403Z,10.20
2023-01-04T18:37:49.079Z,10.20
2023-01-04T18:40:17.096Z,10.20
2023-01-04T18:42:49.207Z,10.20
2023-01-04T18:45:17.675Z,10.20
2023-01-04T18:47:47.520Z,10.20
2023-01-04T18:50:16.083Z,10.20
2023-01-04T18:52:48.255Z,10.20
2023-01-04T18:55:16.420Z,10.20
2023-01-04T18:57:44.286Z,10.30
2023-01-04T19:00:13.544Z,10.30
2023-01-04T19:02:41.861Z,10.30
2023-01-04T19:05:11.169Z,10.30
2023-01-04T19:07:40.253Z,10.40
2023-01-04T19:10:10.663Z,10.40
2023-01-04T19:12:38.972Z,10.40
2023-01-04T19:15:09.178Z,10.40
2023-01-04T19:17:37.426Z,10.40
2023-01-04T19:20:06.027Z,10.40
2023-01-04T19:22:37.210Z,10.50
2023-01-04T19:25:06.146Z,10.40
2023-01-04T19:27:38.629Z,10.50
2023-01-04T19:30:07.145Z,10.50
2023-01-04T19:32:35.359Z,10.60
2023-01-04T19:35:03.431Z,10.50
2023-01-04T19:37:31.499Z,10.60
2023-01-04T19:40:01.335Z,10.60
2023-01-04T19:42:29.408Z,10.60
2023-01-04T19:45:01.799Z,10.60
2023-01-04T19:47:29.766Z,10.70
2023-01-04T19:49:57.811Z,10.80
2023-01-04T19:52:26.092Z,10.80
2023-01-04T19:54:54.147Z,10.80
2023-01-04T19:57:22.230Z,10.80
2023-01-04T19:59:50.902Z,10.90
2023-01-04T20:02:20.753Z,10.90
2023-01-04T20:04:48.866Z,10.90
2023-01-04T20:07:21.368Z,10.90
2023-01-04T20:09:50.820Z,10.90
2023-01-04T20:12:19.590Z,10.90
2023-01-04T20:14:48.867Z,10.90
2023-01-04T20:17:19.304Z,10.90
2023-01-04T20:19:49.048Z,10.90
2023-01-04T20:22:17.053Z,10.90
2023-01-04T20:24:45.159Z,10.90
2023-01-04T20:27:15.708Z,10.90
2023-01-04T20:29:43.683Z,11.00
2023-01-04T20:32:11.740Z,10.90
2023-01-04T20:34:39.775Z,11.00
2023-01-04T20:37:11.187Z,11.00
2023-01-04T20:39:39.306Z,11.00
2023-01-04T20:42:24.670Z,11.00
2023-01-04T20:44:52.955Z,11.00
2023-01-04T20:47:21.203Z,11.00
2023-01-04T20:49:49.362Z,11.00
2023-01-04T20:52:18.773Z,10.90
2023-01-04T20:54:50.317Z,10.80
2023-01-04T20:57:18.307Z,10.90
2023-01-04T20:59:51.566Z,10.80
2023-01-04T21:02:20.607Z,10.90
2023-01-04T21:04:48.858Z,10.90
2023-01-04T21:07:18.484Z,11.00
2023-01-04T21:09:46.467Z,11.00
2023-01-04T21:12:14.512Z,11.10
2023-01-04T21:14:43.121Z,11.20
2023-01-04T21:17:11.072Z,11.30
2023-01-04T21:19:39.033Z,11.30
2023-01-04T21:22:07.049Z,11.40
2023-01-04T21:24:36.618Z,11.40
2023-01-04T21:27:06.364Z,11.40
2023-01-04T21:29:34.369Z,11.50
2023-01-04T21:32:02.411Z,11.50
2023-01-04T21:34:31.620Z,11.50
2023-01-04T21:36:59.708Z,11.50
2023-01-04T21:39:27.682Z,11.50
2023-01-04T21:41:57.170Z,11.60
2023-01-04T21:44:25.238Z,11.60
2023-01-04T21:46:56.285Z,11.60
2023-01-04T21:49:24.301Z,11.60
2023-01-04T21:51:52.290Z,11.60
2023-01-04T21:54:20.360Z,11.60
2023-01-04T21:56:48.380Z,11.60
2023-01-04T21:59:21.032Z,11.60
2023-01-04T22:01:50.285Z,11.70
2023-01-04T22:04:18.516Z,11.60
2023-01-04T22:06:46.619Z,11.60
2023-01-04T22:09:14.667Z,11.60
2023-01-04T22:11:43.408Z,11.60
2023-01-04T22:14:11.520Z,11.50
2023-01-04T22:16:41.084Z,11.60
2023-01-04T22:19:12.630Z,11.50
2023-01-04T22:21:41.237Z,11.50
2023-01-04T22:24:12.123Z,11.50
2023-01-04T22:26:44.564Z,11.50
2023-01-04T22:29:18.869Z,11.50
2023-01-04T22:31:52.004Z,11.40
2023-01-04T22:34:20.399Z,11.40
2023-01-04T22:36:48.834Z,11.40
2023-01-04T22:39:16.943Z,11.30
2023-01-04T22:41:45.096Z,11.30
2023-01-04T22:44:14.907Z,11.30
2023-01-04T22:46:43.055Z,11.30
2023-01-04T22:49:12.518Z,11.30
2023-01-04T22:51:41.287Z,11.20
2023-01-04T22:54:11.193Z,11.20
2023-01-04T22:56:39.299Z,11.20
2023-01-04T22:59:07.474Z,11.20
2023-01-04T23:01:41.364Z,11.20
2023-01-04T23:04:17.383Z,11.20
2023-01-04T23:06:46.014Z,11.20
2023-01-04T23:09:16.755Z,11.20
2023-01-04T23:11:50.039Z,11.10
2023-01-04T23:14:18.880Z,11.10
2023-01-04T23:16:47.356Z,11.10
2023-01-04T23:19:22.369Z,11.10
2023-01-04T23:21:50.768Z,11.00
2023-01-04T23:24:21.680Z,11.00
2023-01-04T23:26:49.667Z,11.00
2023-01-04T23:29:17.804Z,11.00
2023-01-04T23:31:45.828Z,11.00
2023-01-04T23:34:17.174Z,11.00
2023-01-04T23:36:45.376Z,11.00
2023-01-04T23:39:16.173Z,11.00
2023-01-04T23:41:47.517Z,11.00
2023-01-04T23:44:18.530Z,11.00
2023-01-04T23:46:47.193Z,11.00
2023-01-04T23:49:19.616Z,11.10
2023-01-04T23:51:47.659Z,11.10
2023-01-04T23:54:15.670Z,11.10
2023-01-04T23:56:43.812Z,11.10
2023-01-04T23:59:11.967Z,11.20
